Time;durP1;ratioP1;P1;durP2;ratioP2;P2;SDS_P1;SDS_P2;PMS_P1;PMS_P2;Temp;Humidity;BMP_temperature;BMP_pressure;BME280_temperature;BME280_humidity;BME280_pressure;Samples;Min_cycle;Max_cycle;Signal;HPM_P1;HPM_P2
2023/03/27 00:01:37;;;;;;;3.92;1.40;;;;;;;;;;4972949;28;20059;-65
2023/03/27 00:04:07;;;;;;;2.58;0.95;;;;;;;;;;4972864;28;20054;-64
2023/03/27 00:06:37;;;;;;;4.72;1.00;;;;;;;;;;4962927;28;21072;-64
2023/03/27 00:09:13;;;;;;;3.65;1.15;;;;;;;;;;5008806;28;20398;-64
2023/03/27 00:12:10;;;;;;;6.20;1.42;;;;;;;;;;4966716;28;20070;-64
2023/03/27 00:14:40;;;;;;;5.43;1.00;;;;;;;;;;4997685;28;20066;-64
2023/03/27 00:17:09;;;;;;;1.83;1.00;;;;;;;;;;4979774;28;20506;-64
2023/03/27 00:19:39;;;;;;;3.63;1.10;;;;;;;;;;4978511;28;20878;-64
2023/03/27 00:22:09;;;;;;;2.63;1.10;;;;;;;;;;5012074;28;20045;-64
2023/03/27 00:24:39;;;;;;;6.13;0.85;;;;;;;;;;5011761;28;20054;-64
2023/03/27 00:27:10;;;;;;;3.20;1.10;;;;;;;;;;5011756;28;20054;-64
2023/03/27 00:29:40;;;;;;;4.53;2.13;;;;;;;;;;4991985;28;21295;-64
2023/03/27 00:32:10;;;;;;;3.88;1.17;;;;;;;;;;4952603;29;20091;-63
2023/03/27 00:34:41;;;;;;;4.38;1.27;;;;;;;;;;4953252;29;20063;-64
2023/03/27 00:37:11;;;;;;;1.83;0.70;;;;;;;;;;4921241;29;20464;-64
2023/03/27 00:39:42;;;;;;;1.98;0.50;;;;;;;;;;4952698;29;20756;-64
2023/03/27 00:42:13;;;;;;;1.90;0.60;;;;;;;;;;4952673;29;20055;-64
2023/03/27 00:44:43;;;;;;;3.78;0.63;;;;;;;;;;4952632;29;20451;-65
2023/03/27 00:47:13;;;;;;;2.67;0.80;;;;;;;;;;4953021;29;20067;-64
2023/03/27 00:49:44;;;;;;;1.73;0.90;;;;;;;;;;4952600;29;20062;-65
2023/03/27 00:52:15;;;;;;;2.67;0.75;;;;;;;;;;4952759;29;20066;-64
2023/03/27 00:54:46;;;;;;;8.35;0.93;;;;;;;;;;4952590;29;20063;-64
2023/03/27 00:57:20;;;;;;;2.83;0.60;;;;;;;;;;4938835;28;20421;-65
2023/03/27 00:59:53;;;;;;;4.18;1.48;;;;;;;;;;4971467;28;20055;-64
2023/03/27 01:02:25;;;;;;;3.13;0.90;;;;;;;;;;4949741;28;20398;-66
2023/03/27 01:04:56;;;;;;;2.97;0.80;;;;;;;;;;5044466;28;20052;-64
2023/03/27 01:07:27;;;;;;;2.78;0.90;;;;;;;;;;5010381;28;20054;-65
2023/03/27 01:09:57;;;;;;;3.45;1.25;;;;;;;;;;5010031;28;20065;-64
2023/03/27 01:12:40;;;;;;;2.58;0.70;;;;;;;;;;4987369;28;20078;-65
2023/03/27 01:15:40;;;;;;;4.40;0.40;;;;;;;;;;4996567;28;20430;-63
2023/03/27 01:18:21;;;;;;;1.48;0.80;;;;;;;;;;4955710;28;20058;-63
2023/03/27 01:21:17;;;;;;;2.40;0.80;;;;;;;;;;4955853;28;20054;-63
2023/03/27 01:24:13;;;;;;;4.75;0.80;;;;;;;;;;4916978;29;20052;-63
2023/03/27 01:27:05;;;;;;;2.70;1.00;;;;;;;;;;4948230;29;20055;-63
2023/03/27 01:29:41;;;;;;;4.35;1.10;;;;;;;;;;4921083;29;20074;-63
2023/03/27 01:32:28;;;;;;;3.35;0.80;;;;;;;;;;4951691;29;20451;-64
2023/03/27 01:35:36;;;;;;;2.13;0.68;;;;;;;;;;4919572;29;20086;-64
2023/03/27 01:38:46;;;;;;;7.40;0.98;;;;;;;;;;4897912;29;20052;-63
2023/03/27 01:41:41;;;;;;;1.92;0.90;;;;;;;;;;4913549;29;20060;-63
2023/03/27 01:44:33;;;;;;;7.55;0.95;;;;;;;;;;4841184;29;20053;-64
2023/03/27 01:47:22;;;;;;;3.38;0.60;;;;;;;;;;4844012;29;20053;-63
2023/03/27 01:50:33;;;;;;;3.63;0.95;;;;;;;;;;4835236;29;20050;-63
2023/03/27 01:53:36;;;;;;;1.13;0.93;;;;;;;;;;4802686;29;20075;-63
2023/03/27 01:56:27;;;;;;;3.17;0.52;;;;;;;;;;4784271;30;20059;-65
2023/03/27 01:59:10;;;;;;;3.33;0.70;;;;;;;;;;4725278;30;20060;-63
2023/03/27 02:01:46;;;;;;;1.77;1.00;;;;;;;;;;4741588;30;20052;-63
2023/03/27 02:04:43;;;;;;;1.00;0.80;;;;;;;;;;4758700;30;20059;-64
2023/03/27 02:07:19;;;;;;;6.88;0.68;;;;;;;;;;4780970;30;20063;-64
2023/03/27 02:09:57;;;;;;;5.85;1.10;;;;;;;;;;4775125;30;20066;-64
2023/03/27 02:12:34;;;;;;;6.72;1.33;;;;;;;;;;4728094;30;20067;-66
2023/03/27 02:15:34;;;;;;;3.97;0.80;;;;;;;;;;4747773;30;20060;-65
2023/03/27 02:18:28;;;;;;;1.52;0.88;;;;;;;;;;4730758;30;20572;-64
2023/03/27 02:21:15;;;;;;;4.82;1.00;;;;;;;;;;4762863;29;20059;-64
2023/03/27 02:23:46;;;;;;;1.95;0.70;;;;;;;;;;4784032;29;20059;-68
2023/03/27 02:26:17;;;;;;;3.65;0.98;;;;;;;;;;4787534;29;20135;-63
2023/03/27 02:29:18;;;;;;;3.20;1.00;;;;;;;;;;4801777;29;20055;-64
2023/03/27 02:32:06;;;;;;;2.10;1.20;;;;;;;;;;4812355;29;20066;-65
2023/03/27 02:35:02;;;;;;;6.45;1.00;;;;;;;;;;4842451;29;20054;-64
2023/03/27 02:38:02;;;;;;;1.58;0.70;;;;;;;;;;4857690;29;20075;-63
2023/03/27 02:41:18;;;;;;;7.90;0.90;;;;;;;;;;4874507;29;20064;-64
2023/03/27 02:44:16;;;;;;;1.20;0.70;;;;;;;;;;4839025;29;20058;-65
2023/03/27 02:47:06;;;;;;;2.70;0.90;;;;;;;;;;4856478;29;20069;-64
2023/03/27 02:49:45;;;;;;;1.33;0.80;;;;;;;;;;4866609;29;20062;-65
2023/03/27 02:52:25;;;;;;;3.25;0.93;;;;;;;;;;4852982;29;20461;-64
2023/03/27 02:55:05;;;;;;;8.07;1.45;;;;;;;;;;4852579;29;20045;-65
2023/03/27 02:57:38;;;;;;;1.52;0.80;;;;;;;;;;4856287;29;20050;-64
2023/03/27 03:00:28;;;;;;;3.33;1.02;;;;;;;;;;4857723;29;20053;-64
2023/03/27 03:03:26;;;;;;;5.40;1.50;;;;;;;;;;4870974;29;20057;-64
2023/03/27 03:06:05;;;;;;;2.88;0.85;;;;;;;;;;4862004;29;20057;-64
2023/03/27 03:08:39;;;;;;;1.63;0.65;;;;;;;;;;4861030;29;20101;-64
2023/03/27 03:11:13;;;;;;;4.30;1.10;;;;;;;;;;4845563;29;20663;-65
2023/03/27 03:13:44;;;;;;;2.58;0.88;;;;;;;;;;4893581;29;20059;-67
2023/03/27 03:16:14;;;;;;;1.70;0.75;;;;;;;;;;4910472;29;20067;-65
2023/03/27 03:18:44;;;;;;;1.27;0.80;;;;;;;;;;4880700;29;20063;-65
2023/03/27 03:21:14;;;;;;;1.88;1.00;;;;;;;;;;4896421;29;20052;-64
2023/03/27 03:23:45;;;;;;;3.00;0.90;;;;;;;;;;4931022;29;20505;-64
2023/03/27 03:26:28;;;;;;;5.30;1.02;;;;;;;;;;4862228;29;20064;-65
2023/03/27 03:28:59;;;;;;;3.53;0.60;;;;;;;;;;4872296;29;20057;-65
2023/03/27 03:31:42;;;;;;;4.78;1.00;;;;;;;;;;4840718;29;20058;-64
2023/03/27 03:34:15;;;;;;;3.33;0.95;;;;;;;;;;4842036;29;20066;-64
2023/03/27 03:36:48;;;;;;;5.47;1.08;;;;;;;;;;4859880;29;20061;-65
2023/03/27 03:39:22;;;;;;;4.00;1.40;;;;;;;;;;4878339;29;20057;-64
2023/03/27 03:41:53;;;;;;;4.05;0.70;;;;;;;;;;4896920;29;20060;-64
2023/03/27 03:44:23;;;;;;;1.27;0.98;;;;;;;;;;4911500;29;20064;-64
2023/03/27 03:46:54;;;;;;;3.45;1.50;;;;;;;;;;4867914;29;20090;-64
2023/03/27 03:49:25;;;;;;;1.00;0.60;;;;;;;;;;4879453;29;20062;-63
2023/03/27 03:51:55;;;;;;;1.70;0.70;;;;;;;;;;4843994;29;20053;-63
2023/03/27 03:54:33;;;;;;;1.55;0.73;;;;;;;;;;4878101;29;20522;-64
2023/03/27 03:57:04;;;;;;;2.97;1.13;;;;;;;;;;4878186;29;20061;-64
2023/03/27 03:59:35;;;;;;;1.63;0.60;;;;;;;;;;4864092;29;20064;-64
2023/03/27 04:02:30;;;;;;;6.90;1.10;;;;;;;;;;4862185;29;20058;-64
2023/03/27 04:05:08;;;;;;;4.28;1.35;;;;;;;;;;4877832;29;20049;-63
2023/03/27 04:07:39;;;;;;;4.63;1.30;;;;;;;;;;4877706;29;20049;-64
2023/03/27 04:10:38;;;;;;;2.80;1.10;;;;;;;;;;4871295;29;20062;-65
2023/03/27 04:13:17;;;;;;;2.15;1.15;;;;;;;;;;4877500;29;20045;-64
2023/03/27 04:16:02;;;;;;;2.72;1.10;;;;;;;;;;4876137;29;20052;-63
2023/03/27 04:18:40;;;;;;;5.50;1.17;;;;;;;;;;4856245;29;20049;-64
2023/03/27 04:21:17;;;;;;;1.98;1.02;;;;;;;;;;4840682;29;20396;-63
2023/03/27 04:23:48;;;;;;;3.20;1.20;;;;;;;;;;4833816;29;20055;-63
2023/03/27 04:26:25;;;;;;;1.77;0.90;;;;;;;;;;4804070;29;20467;-65
2023/03/27 04:29:15;;;;;;;7.40;1.55;;;;;;;;;;4815780;29;20058;-64
2023/03/27 04:32:20;;;;;;;6.40;1.10;;;;;;;;;;4813989;29;20062;-63
2023/03/27 04:35:25;;;;;;;3.13;1.02;;;;;;;;;;4823014;29;20066;-64
2023/03/27 04:38:21;;;;;;;3.30;1.77;;;;;;;;;;4822871;29;20534;-64
2023/03/27 04:40:54;;;;;;;3.03;0.80;;;;;;;;;;4806257;29;20107;-65
2023/03/27 04:43:25;;;;;;;4.45;1.20;;;;;;;;;;4822284;29;20451;-63
2023/03/27 04:45:55;;;;;;;5.65;1.33;;;;;;;;;;4765216;29;20507;-64
2023/03/27 04:48:28;;;;;;;3.35;1.63;;;;;;;;;;4791629;29;20063;-65
2023/03/27 04:50:58;;;;;;;3.38;1.38;;;;;;;;;;4820918;29;20061;-64
2023/03/27 04:53:35;;;;;;;3.75;1.80;;;;;;;;;;4803601;29;20055;-63
2023/03/27 04:56:07;;;;;;;3.13;1.60;;;;;;;;;;4821545;29;20458;-63
2023/03/27 04:58:44;;;;;;;4.53;1.52;;;;;;;;;;4743136;30;20056;-63
2023/03/27 05:01:16;;;;;;;2.25;1.20;;;;;;;;;;4749930;30;20063;-63
2023/03/27 05:04:02;;;;;;;5.05;1.50;;;;;;;;;;4749933;30;20060;-63
2023/03/27 05:06:39;;;;;;;2.45;1.00;;;;;;;;;;4768335;30;20055;-63
2023/03/27 05:09:13;;;;;;;1.77;1.02;;;;;;;;;;4850813;29;20072;-63
2023/03/27 05:11:48;;;;;;;2.58;1.48;;;;;;;;;;4877242;29;20064;-63
2023/03/27 05:14:21;;;;;;;3.53;1.10;;;;;;;;;;4907002;29;20533;-64
2023/03/27 05:16:52;;;;;;;4.22;1.42;;;;;;;;;;4914501;29;20052;-63
2023/03/27 05:19:23;;;;;;;4.32;1.40;;;;;;;;;;4951899;29;20051;-63
2023/03/27 05:22:00;;;;;;;6.72;1.77;;;;;;;;;;4932982;29;20047;-63
2023/03/27 05:24:31;;;;;;;2.72;0.93;;;;;;;;;;4872191;29;20061;-63
2023/03/27 05:27:01;;;;;;;4.90;1.23;;;;;;;;;;4881033;29;20060;-63
2023/03/27 05:29:32;;;;;;;4.88;1.40;;;;;;;;;;4884466;29;20053;-64
2023/03/27 05:32:17;;;;;;;5.00;1.90;;;;;;;;;;4889849;29;20057;-64
2023/03/27 05:34:53;;;;;;;2.63;1.33;;;;;;;;;;4858452;29;20106;-64
2023/03/27 05:37:26;;;;;;;6.93;1.65;;;;;;;;;;4851790;29;20060;-63
2023/03/27 05:40:27;;;;;;;3.13;1.30;;;;;;;;;;4826775;29;20075;-63
2023/03/27 05:42:57;;;;;;;2.22;1.10;;;;;;;;;;4805779;29;20504;-63
2023/03/27 05:45:29;;;;;;;3.53;1.50;;;;;;;;;;4802398;29;20065;-63
2023/03/27 05:48:01;;;;;;;;;;;;;;;;;;4785725;29;20062;-64
2023/03/27 05:50:36;;;;;;;3.20;1.23;;;;;;;;;;4793112;29;19927;-63
2023/03/27 05:53:14;;;;;;;4.40;1.92;;;;;;;;;;4793130;29;20575;-63
2023/03/27 05:55:59;;;;;;;3.53;1.13;;;;;;;;;;4772933;29;20055;-63
2023/03/27 05:58:39;;;;;;;4.50;1.65;;;;;;;;;;4784379;29;20055;-63
2023/03/27 06:01:10;;;;;;;6.00;1.55;;;;;;;;;;4802313;29;20187;-63
2023/03/27 06:03:40;;;;;;;2.25;1.42;;;;;;;;;;4792974;29;20058;-64
2023/03/27 06:06:21;;;;;;;2.75;1.50;;;;;;;;;;4861060;29;20057;-63
2023/03/27 06:08:57;;;;;;;2.90;1.65;;;;;;;;;;4838572;29;20057;-63
2023/03/27 06:11:29;;;;;;;3.20;1.35;;;;;;;;;;4841558;29;20049;-63
2023/03/27 06:13:59;;;;;;;4.03;1.90;;;;;;;;;;4838573;29;20089;-63
2023/03/27 06:16:45;;;;;;;2.85;1.50;;;;;;;;;;4838348;29;20053;-63
2023/03/27 06:19:35;;;;;;;2.70;1.48;;;;;;;;;;4813266;29;20054;-64
2023/03/27 06:22:06;;;;;;;3.05;2.05;;;;;;;;;;4838735;29;20062;-65
2023/03/27 06:24:39;;;;;;;3.60;1.80;;;;;;;;;;4823007;29;20053;-65
2023/03/27 06:27:10;;;;;;;2.88;1.45;;;;;;;;;;4847855;29;20053;-63
2023/03/27 06:29:41;;;;;;;5.00;1.80;;;;;;;;;;4856556;29;20202;-64
2023/03/27 06:32:12;;;;;;;4.40;1.33;;;;;;;;;;4820293;29;20392;-63
2023/03/27 06:34:48;;;;;;;5.95;1.70;;;;;;;;;;4809127;29;20057;-63
2023/03/27 06:37:47;;;;;;;6.50;1.80;;;;;;;;;;4803462;29;20069;-63
2023/03/27 06:40:23;;;;;;;4.65;1.80;;;;;;;;;;4848646;29;20086;-64
2023/03/27 06:42:59;;;;;;;2.72;1.48;;;;;;;;;;4853224;29;20203;-64
2023/03/27 06:45:39;;;;;;;4.70;1.50;;;;;;;;;;4855288;29;20509;-64
2023/03/27 06:48:28;;;;;;;9.35;1.90;;;;;;;;;;4838545;29;20097;-66
2023/03/27 06:51:02;;;;;;;3.25;1.80;;;;;;;;;;4856336;29;20539;-64
2023/03/27 06:53:33;;;;;;;6.88;1.75;;;;;;;;;;4862275;29;20067;-63
2023/03/27 06:56:06;;;;;;;4.88;1.83;;;;;;;;;;4858546;29;20057;-63
2023/03/27 06:58:59;;;;;;;21.65;2.00;;;;;;;;;;4874694;29;20064;-64
2023/03/27 07:01:30;;;;;;;5.85;1.70;;;;;;;;;;4868819;29;20053;-65
2023/03/27 07:04:27;;;;;;;4.00;1.63;;;;;;;;;;4813670;29;20539;-64
2023/03/27 07:07:10;;;;;;;4.45;1.17;;;;;;;;;;4776470;29;20549;-64
2023/03/27 07:09:42;;;;;;;3.45;1.17;;;;;;;;;;4767737;30;20170;-63
2023/03/27 07:12:14;;;;;;;4.88;2.20;;;;;;;;;;4783294;30;20054;-64
2023/03/27 07:14:46;;;;;;;;;;;;;;;;;;4783552;29;20540;-65
2023/03/27 07:17:17;;;;;;;2.70;1.25;;;;;;;;;;4800903;29;19932;-64
2023/03/27 07:19:52;;;;;;;4.20;1.85;;;;;;;;;;4819808;29;20058;-64
2023/03/27 07:22:26;;;;;;;6.75;1.88;;;;;;;;;;4834586;29;20054;-64
2023/03/27 07:25:05;;;;;;;3.97;1.45;;;;;;;;;;4819639;29;20054;-64
2023/03/27 07:27:41;;;;;;;4.38;2.03;;;;;;;;;;4815279;29;20054;-64
2023/03/27 07:30:12;;;;;;;4.55;1.95;;;;;;;;;;4768409;30;20051;-64
2023/03/27 07:32:44;;;;;;;3.30;1.33;;;;;;;;;;4783071;29;20056;-64
2023/03/27 07:35:14;;;;;;;5.15;1.70;;;;;;;;;;4819131;29;20058;-64
2023/03/27 07:38:03;;;;;;;4.65;1.90;;;;;;;;;;4826344;29;20050;-65
2023/03/27 07:40:37;;;;;;;6.40;1.83;;;;;;;;;;4828132;29;20568;-65
2023/03/27 07:43:28;;;;;;;4.25;1.88;;;;;;;;;;4765467;30;20059;-63
2023/03/27 07:46:01;;;;;;;3.97;2.00;;;;;;;;;;4782767;29;20051;-63
2023/03/27 07:48:31;;;;;;;9.68;1.65;;;;;;;;;;4766036;30;20056;-64
2023/03/27 07:51:01;;;;;;;6.50;1.85;;;;;;;;;;4826499;29;20515;-64
2023/03/27 07:53:43;;;;;;;3.92;1.90;;;;;;;;;;4797705;29;20173;-64
2023/03/27 07:56:22;;;;;;;4.70;1.65;;;;;;;;;;4792602;29;20471;-63
2023/03/27 07:59:11;;;;;;;5.28;2.03;;;;;;;;;;4800960;29;20054;-63
2023/03/27 08:01:41;;;;;;;3.40;1.85;;;;;;;;;;4792350;29;20058;-63
2023/03/27 08:04:11;;;;;;;3.70;1.80;;;;;;;;;;4801147;29;20067;-64
2023/03/27 08:06:44;;;;;;;3.65;1.80;;;;;;;;;;4819084;29;20562;-64
2023/03/27 08:09:20;;;;;;;5.30;1.88;;;;;;;;;;4854533;29;20064;-64
2023/03/27 08:11:50;;;;;;;5.47;1.80;;;;;;;;;;4854963;29;20053;-64
2023/03/27 08:14:20;;;;;;;8.60;2.60;;;;;;;;;;4855237;29;20046;-64
2023/03/27 08:16:50;;;;;;;5.13;1.90;;;;;;;;;;4855477;29;20058;-64
2023/03/27 08:19:26;;;;;;;6.35;2.42;;;;;;;;;;4892683;29;20052;-64
2023/03/27 08:22:00;;;;;;;9.20;2.20;;;;;;;;;;4859666;29;20056;-63
2023/03/27 08:24:43;;;;;;;6.57;2.25;;;;;;;;;;4866368;29;20053;-63
2023/03/27 08:27:23;;;;;;;4.18;1.73;;;;;;;;;;4853196;29;20062;-63
2023/03/27 08:29:53;;;;;;;3.63;1.70;;;;;;;;;;4851021;29;20411;-63
2023/03/27 08:32:23;;;;;;;6.70;1.70;;;;;;;;;;4861589;29;20401;-63
2023/03/27 08:34:55;;;;;;;3.50;2.22;;;;;;;;;;4895990;29;20049;-64
2023/03/27 08:37:26;;;;;;;5.07;2.10;;;;;;;;;;4865170;29;20056;-64
2023/03/27 08:40:25;;;;;;;3.03;1.45;;;;;;;;;;4845444;29;20419;-64
2023/03/27 08:43:38;;;;;;;5.82;1.52;;;;;;;;;;4839935;29;20063;-63
2023/03/27 08:46:27;;;;;;;7.18;2.30;;;;;;;;;;4807360;29;20050;-64
2023/03/27 08:49:16;;;;;;;4.80;2.08;;;;;;;;;;4840057;29;20054;-63
2023/03/27 08:52:19;;;;;;;5.65;2.05;;;;;;;;;;4776505;29;20063;-64
2023/03/27 08:55:06;;;;;;;5.50;1.95;;;;;;;;;;4762974;30;20067;-64
2023/03/27 08:57:42;;;;;;;3.33;1.90;;;;;;;;;;4750081;30;20973;-64
2023/03/27 09:00:26;;;;;;;4.32;1.80;;;;;;;;;;4767854;30;20059;-64
2023/03/27 09:03:34;;;;;;;4.57;2.08;;;;;;;;;;4759128;30;20109;-64
2023/03/27 09:06:28;;;;;;;4.60;2.75;;;;;;;;;;4767335;30;20052;-64
2023/03/27 09:09:07;;;;;;;8.52;2.63;;;;;;;;;;4756062;30;20056;-64
2023/03/27 09:11:56;;;;;;;7.95;2.60;;;;;;;;;;4783528;30;20055;-64
2023/03/27 09:14:40;;;;;;;5.97;2.47;;;;;;;;;;4776286;30;20072;-64
2023/03/27 09:17:35;;;;;;;5.65;2.63;;;;;;;;;;4802386;29;20046;-64
2023/03/27 09:20:31;;;;;;;3.85;2.30;;;;;;;;;;4821258;29;20500;-63
2023/03/27 09:23:16;;;;;;;5.15;2.60;;;;;;;;;;4823962;29;20049;-65
2023/03/27 09:26:12;;;;;;;6.15;2.20;;;;;;;;;;4792639;29;20076;-63
2023/03/27 09:29:13;;;;;;;5.50;2.38;;;;;;;;;;4767167;30;20500;-64
2023/03/27 09:31:56;;;;;;;3.65;1.70;;;;;;;;;;4778654;29;20173;-63
2023/03/27 09:34:33;;;;;;;5.70;1.50;;;;;;;;;;4767211;30;20425;-63
2023/03/27 09:37:13;;;;;;;4.18;2.17;;;;;;;;;;4790750;29;20063;-65
2023/03/27 09:39:50;;;;;;;4.13;2.05;;;;;;;;;;4802559;29;20046;-65
2023/03/27 09:42:32;;;;;;;5.28;2.92;;;;;;;;;;4802639;29;20055;-63
2023/03/27 09:45:07;;;;;;;5.43;2.45;;;;;;;;;;4816872;29;20107;-63
2023/03/27 09:48:04;;;;;;;4.03;2.63;;;;;;;;;;4803236;29;20504;-63
2023/03/27 09:50:48;;;;;;;5.28;2.28;;;;;;;;;;4802646;29;20054;-63
2023/03/27 09:53:34;;;;;;;5.95;2.47;;;;;;;;;;4789096;29;20055;-63
2023/03/27 09:56:15;;;;;;;4.82;1.85;;;;;;;;;;4820615;29;20047;-63
2023/03/27 09:58:50;;;;;;;5.90;2.40;;;;;;;;;;4838449;29;20050;-63
2023/03/27 10:01:33;;;;;;;4.10;1.50;;;;;;;;;;4852932;29;20057;-63
2023/03/27 10:04:15;;;;;;;5.97;2.10;;;;;;;;;;4839729;29;20054;-64
2023/03/27 10:07:21;;;;;;;3.90;1.48;;;;;;;;;;4857500;29;20435;-62
2023/03/27 10:10:18;;;;;;;5.57;2.72;;;;;;;;;;4856711;29;20050;-63
2023/03/27 10:13:10;;;;;;;4.88;2.33;;;;;;;;;;4849718;29;20050;-65
2023/03/27 10:15:46;;;;;;;6.32;3.08;;;;;;;;;;4868292;29;20049;-66
2023/03/27 10:18:28;;;;;;;3.83;2.00;;;;;;;;;;4840322;29;20061;-64
2023/03/27 10:21:28;;;;;;;7.10;2.40;;;;;;;;;;4871878;29;20088;-65
2023/03/27 10:24:27;;;;;;;4.13;2.25;;;;;;;;;;4875521;29;20061;-63
2023/03/27 10:27:30;;;;;;;3.20;1.90;;;;;;;;;;4839714;29;20054;-62
2023/03/27 10:30:26;;;;;;;6.15;2.33;;;;;;;;;;4785017;29;20050;-66
2023/03/27 10:33:08;;;;;;;3.88;1.90;;;;;;;;;;4838521;29;20061;-62
2023/03/27 10:35:51;;;;;;;8.15;2.30;;;;;;;;;;4854571;29;20506;-63
2023/03/27 10:38:27;;;;;;;4.40;2.67;;;;;;;;;;4855724;29;20042;-62
2023/03/27 10:41:12;;;;;;;3.92;2.10;;;;;;;;;;4827204;29;20503;-63
2023/03/27 10:43:56;;;;;;;6.50;2.10;;;;;;;;;;4851239;29;20050;-64
2023/03/27 10:46:30;;;;;;;6.60;2.55;;;;;;;;;;4837621;29;20060;-64
2023/03/27 10:49:10;;;;;;;8.57;2.83;;;;;;;;;;4850275;29;20053;-63
2023/03/27 10:51:42;;;;;;;6.22;2.25;;;;;;;;;;4845860;29;20440;-64
2023/03/27 10:54:50;;;;;;;4.32;2.35;;;;;;;;;;4822067;29;20097;-62
2023/03/27 10:57:40;;;;;;;6.82;2.70;;;;;;;;;;4834649;29;20069;-64
2023/03/27 11:00:31;;;;;;;3.55;2.10;;;;;;;;;;4834381;29;20523;-66
2023/03/27 11:03:27;;;;;;;4.63;2.13;;;;;;;;;;4837774;29;20064;-63
2023/03/27 11:06:07;;;;;;;6.72;2.67;;;;;;;;;;4852904;29;20061;-63
2023/03/27 11:09:00;;;;;;;10.70;2.85;;;;;;;;;;4855502;29;20049;-63
2023/03/27 11:11:40;;;;;;;4.85;2.13;;;;;;;;;;4855400;29;20054;-62
2023/03/27 11:14:22;;;;;;;9.35;2.53;;;;;;;;;;4839469;29;20052;-64
2023/03/27 11:16:57;;;;;;;4.35;2.67;;;;;;;;;;4853966;29;20045;-63
2023/03/27 11:19:53;;;;;;;4.60;2.33;;;;;;;;;;4841688;29;20057;-64
2023/03/27 11:22:32;;;;;;;5.57;2.13;;;;;;;;;;4853884;29;20054;-64
2023/03/27 11:25:24;;;;;;;5.63;1.70;;;;;;;;;;4827231;29;20058;-63
2023/03/27 11:28:09;;;;;;;8.65;2.97;;;;;;;;;;4837294;29;20077;-64
2023/03/27 11:31:12;;;;;;;5.68;3.25;;;;;;;;;;4801236;29;20069;-64
2023/03/27 11:34:04;;;;;;;4.80;2.75;;;;;;;;;;4807434;29;20436;-64
2023/03/27 11:36:43;;;;;;;8.75;2.60;;;;;;;;;;4817975;29;20054;-65
2023/03/27 11:39:21;;;;;;;7.75;3.15;;;;;;;;;;4810540;29;20057;-64
2023/03/27 11:42:01;;;;;;;7.97;3.15;;;;;;;;;;4837623;29;20069;-64
2023/03/27 11:44:32;;;;;;;4.82;3.05;;;;;;;;;;4855796;29;20450;-64
2023/03/27 11:47:48;;;;;;;8.68;4.22;;;;;;;;;;4855778;29;20511;-63
2023/03/27 11:50:27;;;;;;;8.75;5.35;;;;;;;;;;4814912;29;20047;-64
2023/03/27 11:53:05;;;;;;;10.35;7.05;;;;;;;;;;4818985;29;20195;-65
2023/03/27 11:56:32;;;;;;;9.50;6.38;;;;;;;;;;4809998;29;20062;-64
2023/03/27 11:59:40;;;;;;;8.25;4.60;;;;;;;;;;4824727;29;20053;-64
2023/03/27 12:02:28;;;;;;;7.82;4.35;;;;;;;;;;4804413;29;20105;-63
2023/03/27 12:05:19;;;;;;;6.75;5.20;;;;;;;;;;4781438;29;20047;-64
2023/03/27 12:08:29;;;;;;;9.27;5.15;;;;;;;;;;4732144;30;20059;-66
2023/03/27 12:11:03;;;;;;;14.75;6.15;;;;;;;;;;4655390;30;20590;-64
2023/03/27 12:13:43;;;;;;;7.28;3.50;;;;;;;;;;4662475;30;20054;-64
2023/03/27 12:16:57;;;;;;;6.03;3.83;;;;;;;;;;4691736;30;20418;-63
2023/03/27 12:20:20;;;;;;;4.20;1.83;;;;;;;;;;4679756;30;20065;-63
2023/03/27 12:23:19;;;;;;;6.43;2.65;;;;;;;;;;4680636;30;20062;-64
2023/03/27 12:26:47;;;;;;;3.13;1.90;;;;;;;;;;4680706;30;20853;-65
2023/03/27 12:30:11;;;;;;;1.98;0.70;;;;;;;;;;4683064;30;20065;-64
2023/03/27 12:32:54;;;;;;;3.03;1.17;;;;;;;;;;4693058;30;20066;-65
2023/03/27 12:35:27;;;;;;;1.63;1.20;;;;;;;;;;4697634;30;20050;-64
2023/03/27 12:38:38;;;;;;;1.30;1.10;;;;;;;;;;4695057;30;20054;-63
2023/03/27 12:41:23;;;;;;;3.47;1.50;;;;;;;;;;4700980;30;20057;-63
2023/03/27 12:44:05;;;;;;;2.83;1.40;;;;;;;;;;4697950;30;20053;-63
2023/03/27 12:46:41;;;;;;;2.33;0.90;;;;;;;;;;4698973;30;20053;-64
2023/03/27 12:49:25;;;;;;;;;;;;;;;;;;4747233;30;20077;-63
2023/03/27 12:52:11;;;;;;;2.05;1.10;;;;;;;;;;4716979;30;19931;-64
2023/03/27 12:55:27;;;;;;;1.88;0.68;;;;;;;;;;4716092;30;20514;-63
2023/03/27 12:58:35;;;;;;;2.50;1.42;;;;;;;;;;4732400;30;20068;-63
2023/03/27 13:01:24;;;;;;;2.22;1.02;;;;;;;;;;4704137;30;20495;-64
2023/03/27 13:04:01;;;;;;;1.85;1.20;;;;;;;;;;4731962;30;20064;-63
2023/03/27 13:07:01;;;;;;;3.72;1.00;;;;;;;;;;4749699;30;20052;-63
2023/03/27 13:10:02;;;;;;;3.05;1.60;;;;;;;;;;4756204;29;20059;-64
2023/03/27 13:12:48;;;;;;;1.88;1.20;;;;;;;;;;4818794;29;20054;-63
2023/03/27 13:15:36;;;;;;;2.53;1.73;;;;;;;;;;4791172;29;20059;-64
2023/03/27 13:18:29;;;;;;;3.92;1.88;;;;;;;;;;4826239;29;20053;-64
2023/03/27 13:21:36;;;;;;;2.45;0.98;;;;;;;;;;4871529;29;20049;-65
2023/03/27 13:24:48;;;;;;;5.10;1.42;;;;;;;;;;4837462;29;20062;-65
2023/03/27 13:27:49;;;;;;;2.10;1.00;;;;;;;;;;4825998;29;20506;-65
2023/03/27 13:30:38;;;;;;;1.65;1.00;;;;;;;;;;4826248;29;20054;-65
2023/03/27 13:33:33;;;;;;;1.10;0.82;;;;;;;;;;4818373;29;20057;-64
2023/03/27 13:36:17;;;;;;;3.35;1.40;;;;;;;;;;4812447;29;20520;-65
2023/03/27 13:38:51;;;;;;;1.92;1.17;;;;;;;;;;4801480;29;20058;-65
2023/03/27 13:41:43;;;;;;;3.00;1.20;;;;;;;;;;4798421;29;20401;-62
2023/03/27 13:44:29;;;;;;;1.90;1.60;;;;;;;;;;4795778;29;20055;-64
2023/03/27 13:47:08;;;;;;;4.10;1.30;;;;;;;;;;4770081;30;20056;-64
2023/03/27 13:49:44;;;;;;;1.98;1.45;;;;;;;;;;4778577;30;20067;-66
2023/03/27 13:52:32;;;;;;;3.13;1.50;;;;;;;;;;4772815;30;20497;-67
2023/03/27 13:55:18;;;;;;;1.45;1.00;;;;;;;;;;4765690;30;20068;-65
2023/03/27 13:58:57;;;;;;;3.55;1.13;;;;;;;;;;4747366;30;20052;-66
2023/03/27 14:01:52;;;;;;;3.95;1.40;;;;;;;;;;4758177;30;20159;-66
2023/03/27 14:04:38;;;;;;;6.65;2.83;;;;;;;;;;4760966;30;20067;-66
2023/03/27 14:07:38;;;;;;;3.25;1.98;;;;;;;;;;4785357;29;20059;-65
2023/03/27 14:10:30;;;;;;;3.15;1.38;;;;;;;;;;4807095;29;20064;-65
2023/03/27 14:13:31;;;;;;;2.53;2.10;;;;;;;;;;4823542;29;20183;-64
2023/03/27 14:16:38;;;;;;;1.88;1.00;;;;;;;;;;4803737;29;20054;-66
2023/03/27 14:19:27;;;;;;;1.80;1.13;;;;;;;;;;4829736;29;20049;-65
2023/03/27 14:22:15;;;;;;;2.80;1.30;;;;;;;;;;4840085;29;20049;-66
2023/03/27 14:24:59;;;;;;;1.88;1.40;;;;;;;;;;4852125;29;20492;-65
2023/03/27 14:27:35;;;;;;;2.33;1.40;;;;;;;;;;4853636;29;20088;-65
2023/03/27 14:30:14;;;;;;;1.95;0.90;;;;;;;;;;4853966;29;20072;-64
2023/03/27 14:32:51;;;;;;;2.20;1.25;;;;;;;;;;4835891;29;20061;-65
2023/03/27 14:36:02;;;;;;;4.15;1.30;;;;;;;;;;4842039;29;20055;-67
2023/03/27 14:38:36;;;;;;;3.55;1.23;;;;;;;;;;4797271;29;20460;-65
2023/03/27 14:41:28;;;;;;;1.33;0.90;;;;;;;;;;4811952;29;20062;-65
2023/03/27 14:44:03;;;;;;;1.73;1.02;;;;;;;;;;4794215;29;20151;-64
2023/03/27 14:46:44;;;;;;;2.95;1.58;;;;;;;;;;4800763;29;20588;-66
2023/03/27 14:49:21;;;;;;;1.95;1.08;;;;;;;;;;4789260;29;20118;-64
2023/03/27 14:52:02;;;;;;;;;;;;;;;;;;4820216;29;20062;-66
2023/03/27 14:54:56;;;;;;;4.75;1.08;;;;;;;;;;4801690;29;20294;-65
2023/03/27 14:57:33;;;;;;;2.75;1.20;;;;;;;;;;4859456;29;20102;-64
2023/03/27 15:00:06;;;;;;;2.53;1.25;;;;;;;;;;4869313;29;20056;-63
2023/03/27 15:02:43;;;;;;;2.85;1.70;;;;;;;;;;4873976;29;20053;-64
2023/03/27 15:05:16;;;;;;;2.25;1.20;;;;;;;;;;4828465;29;20054;-64
2023/03/27 15:07:54;;;;;;;2.95;1.17;;;;;;;;;;4826834;29;20069;-65
2023/03/27 15:10:53;;;;;;;4.85;1.23;;;;;;;;;;4849289;29;20046;-65
2023/03/27 15:13:38;;;;;;;1.80;1.10;;;;;;;;;;4815047;29;20058;-63
2023/03/27 15:16:25;;;;;;;2.03;0.70;;;;;;;;;;4810526;29;20056;-64
2023/03/27 15:19:11;;;;;;;2.45;1.25;;;;;;;;;;4837154;29;20057;-64
2023/03/27 15:22:04;;;;;;;4.82;1.00;;;;;;;;;;4809552;29;20896;-64
2023/03/27 15:25:09;;;;;;;3.85;0.95;;;;;;;;;;4808580;29;20423;-65
2023/03/27 15:27:41;;;;;;;2.58;1.08;;;;;;;;;;4815672;29;20069;-64
2023/03/27 15:30:30;;;;;;;2.60;1.30;;;;;;;;;;4820872;29;20066;-65
2023/03/27 15:33:03;;;;;;;2.42;1.13;;;;;;;;;;4822808;29;20058;-63
2023/03/27 15:35:45;;;;;;;2.22;1.20;;;;;;;;;;4818997;29;20054;-64
2023/03/27 15:38:17;;;;;;;6.65;1.50;;;;;;;;;;4818524;29;20062;-63
2023/03/27 15:41:07;;;;;;;2.75;1.45;;;;;;;;;;4840964;29;20392;-65
2023/03/27 15:43:37;;;;;;;3.78;1.38;;;;;;;;;;4826744;29;20073;-64
2023/03/27 15:46:16;;;;;;;3.65;1.08;;;;;;;;;;4868576;29;20061;-64
2023/03/27 15:48:54;;;;;;;3.10;1.38;;;;;;;;;;4915225;29;20513;-64
2023/03/27 15:51:28;;;;;;;1.70;1.25;;;;;;;;;;4905375;29;20052;-64
2023/03/27 15:53:58;;;;;;;2.88;1.42;;;;;;;;;;4924986;29;20062;-64
2023/03/27 15:56:42;;;;;;;3.08;1.25;;;;;;;;;;4921268;28;20038;-64
2023/03/27 15:59:15;;;;;;;2.45;1.02;;;;;;;;;;4957705;28;20077;-65
2023/03/27 16:01:52;;;;;;;;;;;;;;;;;;4944747;28;20054;-67
2023/03/27 16:04:26;;;;;;;4.65;1.20;;;;;;;;;;5016158;28;19928;-65
2023/03/27 16:07:10;;;;;;;3.35;1.33;;;;;;;;;;5052100;28;20053;-65
2023/03/27 16:10:04;;;;;;;2.00;1.13;;;;;;;;;;5019357;28;20057;-65
2023/03/27 16:12:49;;;;;;;1.77;1.10;;;;;;;;;;5051644;28;20049;-65
2023/03/27 16:15:33;;;;;;;1.90;1.10;;;;;;;;;;5052209;28;20052;-63
2023/03/27 16:18:17;;;;;;;2.78;0.80;;;;;;;;;;5012906;28;20444;-64
2023/03/27 16:20:47;;;;;;;3.85;1.23;;;;;;;;;;5042981;28;20401;-65